sensor_id;sensor_type;location;lat;lon;timestamp;pressure;altitude;pressure_sealevel;temperature;humidity
74722;BME280;63470;49.826;6.740;2023-09-07T00:01:56;100528.38;;;14.53;57.21
74722;BME280;63470;49.826;6.740;2023-09-07T00:04:31;100531.16;;;14.51;57.18
74722;BME280;63470;49.826;6.740;2023-09-07T00:06:56;100529.17;;;14.51;57.15
74722;BME280;63470;49.826;6.740;2023-09-07T00:09:30;100530.42;;;14.51;57.07
74722;BME280;63470;49.826;6.740;2023-09-07T00:12:00;100524.49;;;14.49;57.04
74722;BME280;63470;49.826;6.740;2023-09-07T00:14:33;100524.31;;;14.44;57.11
74722;BME280;63470;49.826;6.740;2023-09-07T00:16:58;100529.89;;;14.43;57.07
74722;BME280;63470;49.826;6.740;2023-09-07T00:19:32;100532.66;;;14.39;57.07
74722;BME280;63470;49.826;6.740;2023-09-07T00:21:59;100530.44;;;14.35;57.12
74722;BME280;63470;49.826;6.740;2023-09-07T00:24:32;100533.31;;;14.33;57.14
74722;BME280;63470;49.826;6.740;2023-09-07T00:27:00;100531.30;;;14.30;57.17
74722;BME280;63470;49.826;6.740;2023-09-07T00:29:30;100529.45;;;14.28;57.17
74722;BME280;63470;49.826;6.740;2023-09-07T00:32:01;100527.72;;;14.27;57.14
74722;BME280;63470;49.826;6.740;2023-09-07T00:34:36;100525.81;;;14.24;57.17
74722;BME280;63470;49.826;6.740;2023-09-07T00:37:02;100524.34;;;14.22;57.18
74722;BME280;63470;49.826;6.740;2023-09-07T00:39:33;100516.72;;;14.20;57.19
74722;BME280;63470;49.826;6.740;2023-09-07T00:42:06;100514.95;;;14.17;57.24
74722;BME280;63470;49.826;6.740;2023-09-07T00:44:34;100516.42;;;14.14;57.27
74722;BME280;63470;49.826;6.740;2023-09-07T00:47:08;100516.27;;;14.11;57.25
74722;BME280;63470;49.826;6.740;2023-09-07T00:49:38;100513.64;;;14.04;57.34
74722;BME280;63470;49.826;6.740;2023-09-07T00:52:08;100513.26;;;13.99;57.38
74722;BME280;63470;49.826;6.740;2023-09-07T00:54:41;100518.06;;;13.93;57.46
74722;BME280;63470;49.826;6.740;2023-09-07T00:57:10;100519.52;;;13.91;57.47
74722;BME280;63470;49.826;6.740;2023-09-07T00:59:41;100518.12;;;13.90;57.43
74722;BME280;63470;49.826;6.740;2023-09-07T01:02:10;100515.10;;;13.88;57.42
74722;BME280;63470;49.826;6.740;2023-09-07T01:04:42;100509.18;;;13.83;57.46
74722;BME280;63470;49.826;6.740;2023-09-07T01:07:19;100509.16;;;13.80;57.51
74722;BME280;63470;49.826;6.740;2023-09-07T01:09:42;100509.61;;;13.79;57.48
74722;BME280;63470;49.826;6.740;2023-09-07T01:12:16;100507.64;;;13.78;57.53
74722;BME280;63470;49.826;6.740;2023-09-07T01:14:43;100507.52;;;13.77;57.51
74722;BME280;63470;49.826;6.740;2023-09-07T01:17:10;100507.98;;;13.75;57.56
74722;BME280;63470;49.826;6.740;2023-09-07T01:19:40;100514.57;;;13.73;57.54
74722;BME280;63470;49.826;6.740;2023-09-07T01:22:11;100511.31;;;13.70;57.55
74722;BME280;63470;49.826;6.740;2023-09-07T01:24:45;100510.04;;;13.68;57.54
74722;BME280;63470;49.826;6.740;2023-09-07T01:27:11;100510.30;;;13.64;57.56
74722;BME280;63470;49.826;6.740;2023-09-07T01:29:41;100512.67;;;13.62;57.58
74722;BME280;63470;49.826;6.740;2023-09-07T01:32:14;100512.96;;;13.61;57.57
74722;BME280;63470;49.826;6.740;2023-09-07T01:34:43;100511.72;;;13.60;57.55
74722;BME280;63470;49.826;6.740;2023-09-07T01:37:15;100513.35;;;13.58;57.55
74722;BME280;63470;49.826;6.740;2023-09-07T01:39:48;100513.35;;;13.55;57.64
74722;BME280;63470;49.826;6.740;2023-09-07T01:42:13;100511.37;;;13.54;57.62
74722;BME280;63470;49.826;6.740;2023-09-07T01:44:44;100505.44;;;13.53;57.60
74722;BME280;63470;49.826;6.740;2023-09-07T01:47:19;100504.70;;;13.53;57.60
74722;BME280;63470;49.826;6.740;2023-09-07T01:49:47;100505.53;;;13.52;57.55
74722;BME280;63470;49.826;6.740;2023-09-07T01:52:15;100504.12;;;13.49;57.55
74722;BME280;63470;49.826;6.740;2023-09-07T01:54:50;100510.15;;;13.46;57.58
74722;BME280;63470;49.826;6.740;2023-09-07T01:57:21;100508.05;;;13.43;57.66
74722;BME280;63470;49.826;6.740;2023-09-07T01:59:49;100513.48;;;13.41;57.73
74722;BME280;63470;49.826;6.740;2023-09-07T02:02:22;100515.85;;;13.39;57.76
74722;BME280;63470;49.826;6.740;2023-09-07T02:04:47;100517.42;;;13.37;57.78
74722;BME280;63470;49.826;6.740;2023-09-07T02:07:18;100514.23;;;13.35;57.78
74722;BME280;63470;49.826;6.740;2023-09-07T02:09:51;100516.09;;;13.37;57.70
74722;BME280;63470;49.826;6.740;2023-09-07T02:12:20;100513.42;;;13.33;57.70
74722;BME280;63470;49.826;6.740;2023-09-07T02:14:52;100512.68;;;13.29;57.73
74722;BME280;63470;49.826;6.740;2023-09-07T02:17:21;100510.57;;;13.25;57.81
74722;BME280;63470;49.826;6.740;2023-09-07T02:19:56;100505.03;;;13.20;57.86
74722;BME280;63470;49.826;6.740;2023-09-07T02:22:22;100503.38;;;13.16;57.89
74722;BME280;63470;49.826;6.740;2023-09-07T02:24:55;100505.70;;;13.15;57.88
74722;BME280;63470;49.826;6.740;2023-09-07T02:27:26;100504.83;;;13.15;57.81
74722;BME280;63470;49.826;6.740;2023-09-07T02:29:55;100502.85;;;13.10;57.83
74722;BME280;63470;49.826;6.740;2023-09-07T02:32:25;100507.09;;;13.05;57.88
74722;BME280;63470;49.826;6.740;2023-09-07T02:34:55;100504.49;;;13.01;57.93
74722;BME280;63470;49.826;6.740;2023-09-07T02:37:29;100498.86;;;12.98;57.96
74722;BME280;63470;49.826;6.740;2023-09-07T02:39:56;100499.40;;;12.95;58.04
74722;BME280;63470;49.826;6.740;2023-09-07T02:42:27;100494.68;;;12.95;58.06
74722;BME280;63470;49.826;6.740;2023-09-07T02:45:02;100495.30;;;12.97;58.02
74722;BME280;63470;49.826;6.740;2023-09-07T02:47:33;100494.34;;;12.96;58.01
74722;BME280;63470;49.826;6.740;2023-09-07T02:50:04;100493.31;;;12.94;58.01
74722;BME280;63470;49.826;6.740;2023-09-07T02:52:29;100486.11;;;12.89;58.06
74722;BME280;63470;49.826;6.740;2023-09-07T02:55:05;100486.24;;;12.87;58.08
74722;BME280;63470;49.826;6.740;2023-09-07T02:57:30;100488.10;;;12.85;58.07
74722;BME280;63470;49.826;6.740;2023-09-07T03:00:06;100488.06;;;12.83;58.08
74722;BME280;63470;49.826;6.740;2023-09-07T03:02:32;100484.59;;;12.80;58.12
74722;BME280;63470;49.826;6.740;2023-09-07T03:05:03;100480.12;;;12.75;58.15
74722;BME280;63470;49.826;6.740;2023-09-07T03:07:38;100483.55;;;12.74;58.19
74722;BME280;63470;49.826;6.740;2023-09-07T03:10:04;100481.94;;;12.75;58.10
74722;BME280;63470;49.826;6.740;2023-09-07T03:12:34;100484.34;;;12.76;58.12
74722;BME280;63470;49.826;6.740;2023-09-07T03:15:05;100479.74;;;12.77;58.05
74722;BME280;63470;49.826;6.740;2023-09-07T03:17:34;100479.78;;;12.76;58.04
74722;BME280;63470;49.826;6.740;2023-09-07T03:20:19;100478.80;;;12.75;58.08
74722;BME280;63470;49.826;6.740;2023-09-07T03:22:36;100475.11;;;12.74;57.99
74722;BME280;63470;49.826;6.740;2023-09-07T03:25:11;100475.94;;;12.70;58.05
74722;BME280;63470;49.826;6.740;2023-09-07T03:27:37;100480.16;;;12.65;58.17
74722;BME280;63470;49.826;6.740;2023-09-07T03:30:13;100481.48;;;12.65;58.12
74722;BME280;63470;49.826;6.740;2023-09-07T03:32:40;100481.69;;;12.63;58.13
74722;BME280;63470;49.826;6.740;2023-09-07T03:35:13;100477.30;;;12.60;58.15
74722;BME280;63470;49.826;6.740;2023-09-07T03:37:42;100481.69;;;12.59;58.15
74722;BME280;63470;49.826;6.740;2023-09-07T03:40:10;100481.02;;;12.56;58.20
74722;BME280;63470;49.826;6.740;2023-09-07T03:42:44;100482.27;;;12.55;58.23
74722;BME280;63470;49.826;6.740;2023-09-07T03:45:12;100482.23;;;12.57;58.17
74722;BME280;63470;49.826;6.740;2023-09-07T03:47:47;100485.05;;;12.57;58.12
74722;BME280;63470;49.826;6.740;2023-09-07T03:50:15;100483.14;;;12.57;58.07
74722;BME280;63470;49.826;6.740;2023-09-07T03:52:44;100484.83;;;12.56;58.08
74722;BME280;63470;49.826;6.740;2023-09-07T03:55:19;100483.47;;;12.53;58.15
74722;BME280;63470;49.826;6.740;2023-09-07T03:57:49;100482.92;;;12.52;58.17
74722;BME280;63470;49.826;6.740;2023-09-07T04:00:17;100487.06;;;12.52;58.19
74722;BME280;63470;49.826;6.740;2023-09-07T04:02:45;100486.33;;;12.55;58.17
74722;BME280;63470;49.826;6.740;2023-09-07T04:05:16;100487.98;;;12.55;58.12
74722;BME280;63470;49.826;6.740;2023-09-07T04:07:46;100487.98;;;12.51;58.15
74722;BME280;63470;49.826;6.740;2023-09-07T04:10:17;100491.58;;;12.50;58.18
74722;BME280;63470;49.826;6.740;2023-09-07T04:12:47;100488.69;;;12.48;58.14
74722;BME280;63470;49.826;6.740;2023-09-07T04:15:23;100489.67;;;12.46;58.16
74722;BME280;63470;49.826;6.740;2023-09-07T04:17:50;100488.02;;;12.45;58.14
74722;BME280;63470;49.826;6.740;2023-09-07T04:20:24;100483.17;;;12.43;58.14
74722;BME280;63470;49.826;6.740;2023-09-07T04:22:52;100489.62;;;12.43;58.15
74722;BME280;63470;49.826;6.740;2023-09-07T04:25:25;100486.31;;;12.43;58.14
74722;BME280;63470;49.826;6.740;2023-09-07T04:27:53;100484.95;;;12.42;58.13
74722;BME280;63470;49.826;6.740;2023-09-07T04:30:27;100487.31;;;12.39;58.18
74722;BME280;63470;49.826;6.740;2023-09-07T04:32:57;100489.41;;;12.37;58.20
74722;BME280;63470;49.826;6.740;2023-09-07T04:35:28;100490.86;;;12.36;58.24
74722;BME280;63470;49.826;6.740;2023-09-07T04:37:54;100492.43;;;12.35;58.21
74722;BME280;63470;49.826;6.740;2023-09-07T04:40:29;100495.70;;;12.33;58.26
74722;BME280;63470;49.826;6.740;2023-09-07T04:42:59;100491.80;;;12.30;58.36
74722;BME280;63470;49.826;6.740;2023-09-07T04:45:30;100496.63;;;12.28;58.39
74722;BME280;63470;49.826;6.740;2023-09-07T04:47:58;100497.09;;;12.24;58.44
74722;BME280;63470;49.826;6.740;2023-09-07T04:50:31;100502.88;;;12.20;58.53
74722;BME280;63470;49.826;6.740;2023-09-07T04:52:56;100503.86;;;12.17;58.62
74722;BME280;63470;49.826;6.740;2023-09-07T04:55:36;100505.56;;;12.23;58.56
74722;BME280;63470;49.826;6.740;2023-09-07T04:57:59;100508.14;;;12.26;58.45
74722;BME280;63470;49.826;6.740;2023-09-07T05:00:28;100508.97;;;12.27;58.42
74722;BME280;63470;49.826;6.740;2023-09-07T05:02:58;100512.77;;;12.27;58.39
74722;BME280;63470;49.826;6.740;2023-09-07T05:05:29;100505.94;;;12.26;58.42
74722;BME280;63470;49.826;6.740;2023-09-07T05:07:59;100509.80;;;12.28;58.30
74722;BME280;63470;49.826;6.740;2023-09-07T05:10:34;100513.48;;;12.29;58.22
74722;BME280;63470;49.826;6.740;2023-09-07T05:13:03;100510.78;;;12.27;58.28
74722;BME280;63470;49.826;6.740;2023-09-07T05:15:31;100511.58;;;12.29;58.29
74722;BME280;63470;49.826;6.740;2023-09-07T05:18:02;100513.40;;;12.29;58.29
74722;BME280;63470;49.826;6.740;2023-09-07T05:20:35;100514.84;;;12.28;58.34
74722;BME280;63470;49.826;6.740;2023-09-07T05:23:05;100514.68;;;12.27;58.37
74722;BME280;63470;49.826;6.740;2023-09-07T05:25:42;100515.25;;;12.28;58.36
74722;BME280;63470;49.826;6.740;2023-09-07T05:28:05;100520.73;;;12.31;58.32
74722;BME280;63470;49.826;6.740;2023-09-07T05:30:35;100523.30;;;12.35;58.31
74722;BME280;63470;49.826;6.740;2023-09-07T05:33:06;100526.41;;;12.41;58.25
74722;BME280;63470;49.826;6.740;2023-09-07T05:35:37;100530.15;;;12.50;58.19
74722;BME280;63470;49.826;6.740;2023-09-07T05:38:12;100528.25;;;12.58;58.11
74722;BME280;63470;49.826;6.740;2023-09-07T05:40:43;100527.89;;;12.64;58.01
74722;BME280;63470;49.826;6.740;2023-09-07T05:43:10;100532.08;;;12.69;57.96
74722;BME280;63470;49.826;6.740;2023-09-07T05:45:41;100539.03;;;12.77;57.93
74722;BME280;63470;49.826;6.740;2023-09-07T05:48:15;100538.70;;;12.89;57.88
74722;BME280;63470;49.826;6.740;2023-09-07T05:50:48;100541.98;;;13.03;57.83
74722;BME280;63470;49.826;6.740;2023-09-07T05:53:13;100543.20;;;13.17;57.76
74722;BME280;63470;49.826;6.740;2023-09-07T05:55:46;100542.71;;;13.36;57.59
74722;BME280;63470;49.826;6.740;2023-09-07T05:58:12;100550.66;;;13.72;57.22
74722;BME280;63470;49.826;6.740;2023-09-07T06:00:44;100549.77;;;14.63;56.72
74722;BME280;63470;49.826;6.740;2023-09-07T06:03:13;100549.25;;;15.76;56.46
74722;BME280;63470;49.826;6.740;2023-09-07T06:05:47;100543.34;;;16.88;55.82
74722;BME280;63470;49.826;6.740;2023-09-07T06:08:17;100543.19;;;17.90;54.97
74722;BME280;63470;49.826;6.740;2023-09-07T06:10:44;100540.77;;;18.61;54.45
74722;BME280;63470;49.826;6.740;2023-09-07T06:13:15;100528.00;;;19.28;53.97
74722;BME280;63470;49.826;6.740;2023-09-07T06:15:46;100528.00;;;19.82;53.64
74722;BME280;63470;49.826;6.740;2023-09-07T06:18:17;100526.02;;;20.37;53.33
74722;BME280;63470;49.826;6.740;2023-09-07T06:20:48;100527.82;;;20.68;53.51
74722;BME280;63470;49.826;6.740;2023-09-07T06:23:17;100526.05;;;20.59;54.25
74722;BME280;63470;49.826;6.740;2023-09-07T06:25:48;100528.95;;;20.55;54.95
74722;BME280;63470;49.826;6.740;2023-09-07T06:28:23;100530.11;;;20.31;55.67
74722;BME280;63470;49.826;6.740;2023-09-07T06:30:49;100540.23;;;19.99;55.91
74722;BME280;63470;49.826;6.740;2023-09-07T06:33:19;100541.88;;;19.66;56.62
74722;BME280;63470;49.826;6.740;2023-09-07T06:35:52;100539.83;;;19.26;57.07
74722;BME280;63470;49.826;6.740;2023-09-07T06:38:21;100546.16;;;18.91;57.44
74722;BME280;63470;49.826;6.740;2023-09-07T06:40:51;100547.05;;;18.65;57.87
74722;BME280;63470;49.826;6.740;2023-09-07T06:43:23;100546.73;;;18.49;57.91
74722;BME280;63470;49.826;6.740;2023-09-07T06:45:52;100546.57;;;18.42;57.76
74722;BME280;63470;49.826;6.740;2023-09-07T06:48:25;100550.83;;;18.42;57.49
74722;BME280;63470;49.826;6.740;2023-09-07T06:50:53;100545.49;;;18.33;57.38
74722;BME280;63470;49.826;6.740;2023-09-07T06:53:23;100544.14;;;18.26;57.40
74722;BME280;63470;49.826;6.740;2023-09-07T06:55:59;100544.16;;;18.21;57.34
74722;BME280;63470;49.826;6.740;2023-09-07T06:58:24;100544.09;;;18.19;57.22
74722;BME280;63470;49.826;6.740;2023-09-07T07:00:58;100543.73;;;18.23;57.06
74722;BME280;63470;49.826;6.740;2023-09-07T07:03:28;100544.58;;;18.27;56.88
74722;BME280;63470;49.826;6.740;2023-09-07T07:05:56;100544.39;;;18.29;56.77
74722;BME280;63470;49.826;6.740;2023-09-07T07:08:25;100542.24;;;18.34;56.68
74722;BME280;63470;49.826;6.740;2023-09-07T07:10:56;100541.45;;;18.44;56.51
74722;BME280;63470;49.826;6.740;2023-09-07T07:13:26;100540.20;;;18.52;56.36
74722;BME280;63470;49.826;6.740;2023-09-07T07:15:57;100533.01;;;18.57;56.21
74722;BME280;63470;49.826;6.740;2023-09-07T07:18:30;100531.67;;;18.62;56.14
74722;BME280;63470;49.826;6.740;2023-09-07T07:21:00;100529.86;;;18.70;56.12
74722;BME280;63470;49.826;6.740;2023-09-07T07:23:28;100528.33;;;18.83;56.01
74722;BME280;63470;49.826;6.740;2023-09-07T07:25:58;100525.08;;;19.03;55.82
74722;BME280;63470;49.826;6.740;2023-09-07T07:28:29;100522.91;;;19.24;55.52
74722;BME280;63470;49.826;6.740;2023-09-07T07:31:08;100520.83;;;19.46;55.25
74722;BME280;63470;49.826;6.740;2023-09-07T07:33:30;100518.05;;;19.60;55.15
74722;BME280;63470;49.826;6.740;2023-09-07T07:36:03;100519.56;;;19.77;55.07
74722;BME280;63470;49.826;6.740;2023-09-07T07:38:35;100514.76;;;19.94;54.93
74722;BME280;63470;49.826;6.740;2023-09-07T07:41:01;100520.70;;;20.10;54.85
74722;BME280;63470;49.826;6.740;2023-09-07T07:43:32;100514.02;;;20.24;54.81
74722;BME280;63470;49.826;6.740;2023-09-07T07:46:02;100509.52;;;20.37;54.73
74722;BME280;63470;49.826;6.740;2023-09-07T07:48:36;100505.33;;;20.52;54.66
74722;BME280;63470;49.826;6.740;2023-09-07T07:51:04;100506.88;;;20.69;54.57
74722;BME280;63470;49.826;6.740;2023-09-07T07:53:33;100502.66;;;20.85;54.45
74722;BME280;63470;49.826;6.740;2023-09-07T07:56:04;100497.92;;;21.02;54.31
74722;BME280;63470;49.826;6.740;2023-09-07T07:58:35;100498.06;;;21.17;54.15
74722;BME280;63470;49.826;6.740;2023-09-07T08:01:18;100497.39;;;21.34;54.04
74722;BME280;63470;49.826;6.740;2023-09-07T08:03:39;100498.08;;;21.56;53.95
74722;BME280;63470;49.826;6.740;2023-09-07T08:06:06;100497.53;;;21.86;53.78
74722;BME280;63470;49.826;6.740;2023-09-07T08:08:38;100492.58;;;22.36;53.23
74722;BME280;63470;49.826;6.740;2023-09-07T08:11:10;100490.43;;;22.61;53.34
74722;BME280;63470;49.826;6.740;2023-09-07T08:13:40;100490.46;;;22.91;53.09
74722;BME280;63470;49.826;6.740;2023-09-07T08:16:13;100486.16;;;23.34;52.62
74722;BME280;63470;49.826;6.740;2023-09-07T08:18:43;100483.94;;;23.78;52.08
74722;BME280;63470;49.826;6.740;2023-09-07T08:21:09;100487.81;;;24.13;52.05
74722;BME280;63470;49.826;6.740;2023-09-07T08:23:40;100482.38;;;24.51;51.73
74722;BME280;63470;49.826;6.740;2023-09-07T08:26:13;100478.33;;;24.72;52.08
74722;BME280;63470;49.826;6.740;2023-09-07T08:28:41;100476.38;;;25.39;51.63
74722;BME280;63470;49.826;6.740;2023-09-07T08:31:13;100478.23;;;26.01;51.31
74722;BME280;63470;49.826;6.740;2023-09-07T08:33:42;100470.87;;;26.46;51.48
74722;BME280;63470;49.826;6.740;2023-09-07T08:36:16;100469.08;;;27.19;50.85
74722;BME280;63470;49.826;6.740;2023-09-07T08:38:43;100465.98;;;27.94;50.33
74722;BME280;63470;49.826;6.740;2023-09-07T08:41:14;100469.05;;;28.41;50.50
74722;BME280;63470;49.826;6.740;2023-09-07T08:43:46;100464.06;;;29.03;49.97
74722;BME280;63470;49.826;6.740;2023-09-07T08:46:19;100464.99;;;29.65;49.33
74722;BME280;63470;49.826;6.740;2023-09-07T08:48:48;100467.44;;;30.28;48.70
74722;BME280;63470;49.826;6.740;2023-09-07T08:51:18;100467.94;;;30.88;48.08
74722;BME280;63470;49.826;6.740;2023-09-07T08:53:47;100469.00;;;31.17;48.01
74722;BME280;63470;49.826;6.740;2023-09-07T08:56:17;100468.38;;;31.36;48.17
74722;BME280;63470;49.826;6.740;2023-09-07T08:58:50;100464.94;;;31.70;48.03
74722;BME280;63470;49.826;6.740;2023-09-07T09:01:18;100461.95;;;32.00;48.10
74722;BME280;63470;49.826;6.740;2023-09-07T09:03:48;100456.84;;;32.30;48.07
74722;BME280;63470;49.826;6.740;2023-09-07T09:06:21;100457.70;;;32.62;47.97
74722;BME280;63470;49.826;6.740;2023-09-07T09:08:54;100451.66;;;32.78;47.96
74722;BME280;63470;49.826;6.740;2023-09-07T09:11:20;100451.95;;;32.73;48.36
74722;BME280;63470;49.826;6.740;2023-09-07T09:13:52;100451.00;;;33.04;48.30
74722;BME280;63470;49.826;6.740;2023-09-07T09:16:20;100451.37;;;33.20;48.34
74722;BME280;63470;49.826;6.740;2023-09-07T09:18:55;100450.06;;;33.47;48.23
74722;BME280;63470;49.826;6.740;2023-09-07T09:21:32;100446.22;;;33.61;48.14
74722;BME280;63470;49.826;6.740;2023-09-07T09:23:54;100444.02;;;33.45;48.30
74722;BME280;63470;49.826;6.740;2023-09-07T09:26:22;100440.59;;;33.32;48.72
74722;BME280;63470;49.826;6.740;2023-09-07T09:28:55;100437.44;;;33.66;48.47
74722;BME280;63470;49.826;6.740;2023-09-07T09:31:24;100432.78;;;33.75;48.46
74722;BME280;63470;49.826;6.740;2023-09-07T09:33:55;100429.67;;;33.96;48.34
74722;BME280;63470;49.826;6.740;2023-09-07T09:36:32;100428.19;;;34.07;48.32
74722;BME280;63470;49.826;6.740;2023-09-07T09:38:54;100425.21;;;34.08;48.27
74722;BME280;63470;49.826;6.740;2023-09-07T09:41:26;100420.48;;;33.98;48.46
74722;BME280;63470;49.826;6.740;2023-09-07T09:43:56;100416.53;;;33.90;48.62
74722;BME280;63470;49.826;6.740;2023-09-07T09:46:26;100417.27;;;33.86;48.73
74722;BME280;63470;49.826;6.740;2023-09-07T09:48:57;100416.55;;;33.87;48.74
74722;BME280;63470;49.826;6.740;2023-09-07T09:51:28;100414.14;;;34.21;48.42
74722;BME280;63470;49.826;6.740;2023-09-07T09:54:00;100414.20;;;34.50;48.06
74722;BME280;63470;49.826;6.740;2023-09-07T09:56:29;100413.30;;;34.36;48.19
74722;BME280;63470;49.826;6.740;2023-09-07T09:59:00;100411.88;;;34.26;48.30
74722;BME280;63470;49.826;6.740;2023-09-07T10:01:41;100413.79;;;34.22;48.34
74722;BME280;63470;49.826;6.740;2023-09-07T10:04:01;100410.05;;;34.30;48.21
74722;BME280;63470;49.826;6.740;2023-09-07T10:06:33;100406.67;;;34.51;47.92
74722;BME280;63470;49.826;6.740;2023-09-07T10:09:06;100401.49;;;34.68;47.72
74722;BME280;63470;49.826;6.740;2023-09-07T10:11:34;100399.62;;;35.00;47.31
74722;BME280;63470;49.826;6.740;2023-09-07T10:14:07;100396.23;;;34.91;47.27
74722;BME280;63470;49.826;6.740;2023-09-07T10:16:50;100392.03;;;34.57;47.85
74722;BME280;63470;49.826;6.740;2023-09-07T10:19:22;100387.50;;;34.65;47.76
74722;BME280;63470;49.826;6.740;2023-09-07T10:21:39;100385.47;;;34.81;47.53
74722;BME280;63470;49.826;6.740;2023-09-07T10:24:05;100376.84;;;34.82;47.46
74722;BME280;63470;49.826;6.740;2023-09-07T10:26:35;100378.48;;;34.81;47.57
74722;BME280;63470;49.826;6.740;2023-09-07T10:29:06;100368.62;;;34.94;47.37
74722;BME280;63470;49.826;6.740;2023-09-07T10:31:36;100366.91;;;35.16;47.22
74722;BME280;63470;49.826;6.740;2023-09-07T10:34:10;100369.20;;;35.33;47.01
74722;BME280;63470;49.826;6.740;2023-09-07T10:36:38;100361.06;;;35.65;46.72
74722;BME280;63470;49.826;6.740;2023-09-07T10:39:09;100360.81;;;35.92;46.38
74722;BME280;63470;49.826;6.740;2023-09-07T10:41:46;100356.42;;;35.72;46.55
74722;BME280;63470;49.826;6.740;2023-09-07T10:44:11;100356.27;;;35.68;46.70
74722;BME280;63470;49.826;6.740;2023-09-07T10:46:40;100362.81;;;35.69;46.76
74722;BME280;63470;49.826;6.740;2023-09-07T10:49:11;100359.41;;;35.60;46.92
74722;BME280;63470;49.826;6.740;2023-09-07T10:51:45;100357.91;;;35.64;46.89
74722;BME280;63470;49.826;6.740;2023-09-07T10:54:17;100358.59;;;35.56;47.08
74722;BME280;63470;49.826;6.740;2023-09-07T10:56:43;100356.12;;;35.80;46.83
74722;BME280;63470;49.826;6.740;2023-09-07T10:59:14;100353.73;;;35.89;46.68
74722;BME280;63470;49.826;6.740;2023-09-07T11:01:46;100351.48;;;35.67;46.93
74722;BME280;63470;49.826;6.740;2023-09-07T11:04:13;100350.08;;;35.55;47.12
74722;BME280;63470;49.826;6.740;2023-09-07T11:06:43;100344.30;;;35.37;47.37
74722;BME280;63470;49.826;6.740;2023-09-07T11:09:15;100345.38;;;35.40;47.38
74722;BME280;63470;49.826;6.740;2023-09-07T11:11:46;100338.56;;;35.54;47.29
74722;BME280;63470;49.826;6.740;2023-09-07T11:14:15;100342.06;;;35.63;47.26
74722;BME280;63470;49.826;6.740;2023-09-07T11:16:45;100338.31;;;35.80;47.11
74722;BME280;63470;49.826;6.740;2023-09-07T11:19:21;100338.24;;;35.82;47.08
74722;BME280;63470;49.826;6.740;2023-09-07T11:21:47;100333.62;;;35.88;47.16
74722;BME280;63470;49.826;6.740;2023-09-07T11:24:18;100332.91;;;36.04;47.11
74722;BME280;63470;49.826;6.740;2023-09-07T11:26:50;100326.42;;;36.02;47.17
74722;BME280;63470;49.826;6.740;2023-09-07T11:29:18;100320.97;;;35.99;47.26
74722;BME280;63470;49.826;6.740;2023-09-07T11:31:48;100321.70;;;36.07;47.26
74722;BME280;63470;49.826;6.740;2023-09-07T11:34:19;100325.53;;;36.06;47.26
74722;BME280;63470;49.826;6.740;2023-09-07T11:36:50;100317.73;;;35.76;47.65
74722;BME280;63470;49.826;6.740;2023-09-07T11:39:23;100318.91;;;35.72;47.74
74722;BME280;63470;49.826;6.740;2023-09-07T11:41:50;100313.62;;;35.89;47.58
74722;BME280;63470;49.826;6.740;2023-09-07T11:44:21;100315.89;;;36.08;47.30
74722;BME280;63470;49.826;6.740;2023-09-07T11:46:51;100310.25;;;36.29;47.13
74722;BME280;63470;49.826;6.740;2023-09-07T11:49:22;100308.75;;;36.50;46.99
74722;BME280;63470;49.826;6.740;2023-09-07T11:51:52;100311.12;;;36.85;46.62
74722;BME280;63470;49.826;6.740;2023-09-07T11:54:23;100311.53;;;37.10;46.37
74722;BME280;63470;49.826;6.740;2023-09-07T11:56:54;100304.80;;;37.20;46.27
74722;BME280;63470;49.826;6.740;2023-09-07T11:59:25;100302.81;;;37.11;46.43
74722;BME280;63470;49.826;6.740;2023-09-07T12:01:55;100303.02;;;37.08;46.50
74722;BME280;63470;49.826;6.740;2023-09-07T12:04:26;100295.72;;;37.05;46.62
74722;BME280;63470;49.826;6.740;2023-09-07T12:06:56;100296.38;;;37.10;46.58
74722;BME280;63470;49.826;6.740;2023-09-07T12:09:27;100299.86;;;37.07;46.69
74722;BME280;63470;49.826;6.740;2023-09-07T12:11:57;100295.59;;;36.92;46.93
74722;BME280;63470;49.826;6.740;2023-09-07T12:14:28;100297.27;;;36.79;47.10
74722;BME280;63470;49.826;6.740;2023-09-07T12:16:58;100289.84;;;37.05;46.70
74722;BME280;63470;49.826;6.740;2023-09-07T12:19:29;100291.05;;;37.26;46.49
74722;BME280;63470;49.826;6.740;2023-09-07T12:21:59;100285.16;;;37.27;46.47
74722;BME280;63470;49.826;6.740;2023-09-07T12:24:30;100284.91;;;37.02;46.90
74722;BME280;63470;49.826;6.740;2023-09-07T12:27:00;100284.05;;;37.05;46.86
74722;BME280;63470;49.826;6.740;2023-09-07T12:29:31;100279.22;;;37.27;46.59
74722;BME280;63470;49.826;6.740;2023-09-07T12:32:01;100280.03;;;37.26;46.59
74722;BME280;63470;49.826;6.740;2023-09-07T12:34:32;100279.91;;;37.02;46.95
74722;BME280;63470;49.826;6.740;2023-09-07T12:37:05;100278.16;;;36.93;46.97
74722;BME280;63470;49.826;6.740;2023-09-07T12:39:33;100280.64;;;36.80;47.12
74722;BME280;63470;49.826;6.740;2023-09-07T12:42:04;100272.14;;;37.04;46.63
74722;BME280;63470;49.826;6.740;2023-09-07T12:44:34;100272.23;;;37.03;46.52
74722;BME280;63470;49.826;6.740;2023-09-07T12:47:05;100271.28;;;37.04;46.45
74722;BME280;63470;49.826;6.740;2023-09-07T12:49:35;100267.28;;;37.01;46.37
74722;BME280;63470;49.826;6.740;2023-09-07T12:52:11;100263.30;;;37.12;45.94
74722;BME280;63470;49.826;6.740;2023-09-07T12:54:39;100267.55;;;37.16;45.55
74722;BME280;63470;49.826;6.740;2023-09-07T12:57:07;100260.00;;;37.03;45.42
74722;BME280;63470;49.826;6.740;2023-09-07T12:59:37;100259.11;;;37.03;45.10
74722;BME280;63470;49.826;6.740;2023-09-07T13:02:09;100253.78;;;37.04;44.64
74722;BME280;63470;49.826;6.740;2023-09-07T13:04:38;100252.23;;;36.53;45.18
74722;BME280;63470;49.826;6.740;2023-09-07T13:07:09;100257.50;;;35.76;46.20